Tri Cities Regional Tn Va Airport Bristol,Johnson,Kingsport US
ICAO: KTRI
IATA: TRI
Category: Large
Scheduled Services: Yes

Elevation: 1519 ft
TransAlt. 18000 ft.

Airport Communications:
APP:119.25
ATIS:118.25
CTAF:119.5
DEP:125.5
GND:121.7
NASHVILLE RDO:122.2
TWR:119.5
UNICOM:122.95

KTRI Zoom In..

If Map Doesn't Load, Click Here

Runways:

(A) RW 05 length 8000 ft width 150 ft
ILS 111.50 / hdg 48

(B) RW 09 length 4442 ft width 150 ft
---- / hdg 94

(C) RW 23 length 8000 ft width 150 ft
ILS 109.90 / hdg 228

(D) RW 27 length 4442 ft width 150 ft
---- / hdg 274

Location; KTRI
Day. 26 / Time. 09.53 Zulu
* Altimeter: 30.07
* Temperature: 19° c. 66.2°f.
* Wind from: KTR° Speed I kn.
Dewpoint: 19° c.
Visibility: 10 Statute Miles.
Clouds: Scattered 7500 ft.
Clouds: Overcast 24000 ft.

KTRI 260953Z 00000KT 10SM SCT075 OVC240 19/19 A3007 RMK AO2 DZE40 SLP157 P0000 T01940189


Wind From KTR°
Speed I kn.

 
 
jpsmedia.com for Web Design worldairports.se 2018   terms of use